N978PJ FGSL-GBYD
Flight info
| Callsign | N978PJ |
|---|---|
| Flight time | 3h 41m |
| Altitude | 47000 |
| Route | FGSL/04 ARDEX UP685 ACC UB600 AD UR979 NANAN V210 GIA UB600 POTOX ILSX32 NUVES GBYD/32 |
| Aircraft | C750/M-SDE3FGIJ1KRWXY/LB1 |
Departure
| Time | 2026-04-22 09:51 |
|---|---|
| Airport | Malabo International Airport (FGSL) |
Arrival
| Time | 2026-04-22 13:32 |
|---|---|
| Airport | Banjul International Airport (GBYD) |
| Time | Latitude | Longitude | Altitude | Speed | Heading |
|---|---|---|---|---|---|
| 2026-04-22 09:25 | 3.75950 | 8.71494 | 65 ft | 0 kts | 308° |
| 2026-04-22 09:40 | 3.75946 | 8.71499 | 59 ft | 4 kts | 308° |
| 2026-04-22 09:40 | 3.75932 | 8.71521 | 62 ft | 4 kts | 275° |
| 2026-04-22 09:41 | 3.75941 | 8.71545 | 59 ft | 4 kts | 220° |
| 2026-04-22 09:41 | 3.75942 | 8.71546 | 59 ft | 0 kts | 220° |
| 2026-04-22 09:44 | 3.75939 | 8.71543 | 66 ft | 3 kts | 217° |
| 2026-04-22 09:44 | 3.75900 | 8.71520 | 61 ft | 10 kts | 217° |
| 2026-04-22 09:44 | 3.75830 | 8.71460 | 66 ft | 16 kts | 223° |
| 2026-04-22 09:44 | 3.75757 | 8.71380 | 66 ft | 14 kts | 261° |
| 2026-04-22 09:45 | 3.75744 | 8.71303 | 63 ft | 12 kts | 219° |
| 2026-04-22 09:45 | 3.75676 | 8.71235 | 65 ft | 15 kts | 219° |
| 2026-04-22 09:45 | 3.75597 | 8.71169 | 66 ft | 16 kts | 222° |
| 2026-04-22 09:45 | 3.75503 | 8.71086 | 66 ft | 20 kts | 220° |
| 2026-04-22 09:46 | 3.75386 | 8.70983 | 66 ft | 25 kts | 222° |
| 2026-04-22 09:46 | 3.75250 | 8.70857 | 66 ft | 29 kts | 220° |
| 2026-04-22 09:46 | 3.75089 | 8.70716 | 66 ft | 33 kts | 224° |
| 2026-04-22 09:46 | 3.74924 | 8.70566 | 66 ft | 31 kts | 221° |
| 2026-04-22 09:47 | 3.74768 | 8.70428 | 67 ft | 29 kts | 220° |
| 2026-04-22 09:47 | 3.74624 | 8.70301 | 61 ft | 27 kts | 222° |
| 2026-04-22 09:47 | 3.74494 | 8.70180 | 67 ft | 24 kts | 228° |
| 2026-04-22 09:47 | 3.74480 | 8.70078 | 67 ft | 13 kts | 297° |
| 2026-04-22 09:48 | 3.74494 | 8.70056 | 70 ft | 0 kts | 305° |
| 2026-04-22 09:49 | 3.74496 | 8.70054 | 64 ft | 2 kts | 305° |
| 2026-04-22 09:49 | 3.74522 | 8.70022 | 74 ft | 9 kts | 319° |
| 2026-04-22 09:49 | 3.74586 | 8.70030 | 75 ft | 9 kts | 41° |
| 2026-04-22 09:49 | 3.74588 | 8.70032 | 71 ft | 0 kts | 40° |
| 2026-04-22 09:50 | 3.74726 | 8.70151 | 73 ft | 76 kts | 42° |
| 2026-04-22 09:50 | 3.75357 | 8.70716 | 69 ft | 155 kts | 41° |
| 2026-04-22 09:51 | 3.76227 | 8.71485 | 393 ft | 174 kts | 41° |
| 2026-04-22 09:51 | 3.77180 | 8.72307 | 1024 ft | 186 kts | 40° |
| 2026-04-22 09:51 | 3.78226 | 8.73136 | 1671 ft | 202 kts | 38° |
| 2026-04-22 09:51 | 3.79400 | 8.74039 | 2252 ft | 222 kts | 38° |
| 2026-04-22 09:52 | 3.80669 | 8.75006 | 2937 ft | 236 kts | 38° |
| 2026-04-22 09:52 | 3.82004 | 8.76050 | 3664 ft | 246 kts | 39° |
| 2026-04-22 09:52 | 3.83388 | 8.77040 | 4605 ft | 249 kts | 26° |
| 2026-04-22 09:52 | 3.85110 | 8.77202 | 5379 ft | 255 kts | 348° |
| 2026-04-22 09:53 | 3.86603 | 8.76257 | 6204 ft | 262 kts | 311° |
| 2026-04-22 09:53 | 3.87394 | 8.74600 | 6970 ft | 268 kts | 289° |
| 2026-04-22 09:53 | 3.87876 | 8.72787 | 7824 ft | 272 kts | 286° |
| 2026-04-22 09:53 | 3.88328 | 8.70923 | 8689 ft | 278 kts | 286° |
| 2026-04-22 09:54 | 3.88771 | 8.69012 | 9515 ft | 285 kts | 286° |
| 2026-04-22 09:54 | 3.89228 | 8.67060 | 10251 ft | 290 kts | 288° |
| 2026-04-22 09:54 | 3.89834 | 8.65126 | 11017 ft | 292 kts | 291° |
| 2026-04-22 09:54 | 3.90456 | 8.63173 | 11766 ft | 297 kts | 289° |
| 2026-04-22 09:55 | 3.91016 | 8.61175 | 12436 ft | 300 kts | 287° |
| 2026-04-22 09:55 | 3.91573 | 8.59145 | 13062 ft | 304 kts | 288° |
| 2026-04-22 09:55 | 3.92161 | 8.57100 | 13710 ft | 307 kts | 288° |
| 2026-04-22 09:55 | 3.92761 | 8.55037 | 14284 ft | 310 kts | 287° |
| 2026-04-22 09:56 | 3.93356 | 8.52957 | 14884 ft | 312 kts | 287° |
| 2026-04-22 09:56 | 3.93953 | 8.50862 | 15469 ft | 314 kts | 287° |
| 2026-04-22 09:56 | 3.94558 | 8.48751 | 16078 ft | 317 kts | 286° |
| 2026-04-22 09:56 | 3.95168 | 8.46623 | 16694 ft | 319 kts | 286° |
| 2026-04-22 09:57 | 3.95783 | 8.44477 | 17324 ft | 322 kts | 286° |
| 2026-04-22 09:57 | 3.96402 | 8.42313 | 17966 ft | 325 kts | 285° |
| 2026-04-22 09:57 | 3.97027 | 8.40129 | 18555 ft | 327 kts | 285° |
| 2026-04-22 09:57 | 3.97654 | 8.37937 | 19170 ft | 328 kts | 286° |
| 2026-04-22 09:58 | 3.98284 | 8.35738 | 19788 ft | 329 kts | 286° |
| 2026-04-22 09:58 | 3.98914 | 8.33536 | 20419 ft | 330 kts | 287° |
| 2026-04-22 09:58 | 3.99547 | 8.31323 | 21038 ft | 332 kts | 287° |
| 2026-04-22 09:58 | 4.00182 | 8.29104 | 21671 ft | 333 kts | 287° |
| 2026-04-22 09:59 | 4.00823 | 8.26865 | 22311 ft | 334 kts | 287° |
| 2026-04-22 09:59 | 4.01464 | 8.24622 | 22955 ft | 336 kts | 288° |
| 2026-04-22 09:59 | 4.02109 | 8.22367 | 23579 ft | 337 kts | 288° |
| 2026-04-22 09:59 | 4.02756 | 8.20106 | 24101 ft | 339 kts | 288° |
| 2026-04-22 10:00 | 4.03407 | 8.17828 | 24631 ft | 341 kts | 289° |
| 2026-04-22 10:00 | 4.04061 | 8.15542 | 25159 ft | 342 kts | 289° |
| 2026-04-22 10:00 | 4.04719 | 8.13242 | 25679 ft | 345 kts | 289° |
| 2026-04-22 10:00 | 4.05380 | 8.10929 | 26204 ft | 346 kts | 289° |
| 2026-04-22 10:01 | 4.06045 | 8.08603 | 26729 ft | 349 kts | 290° |
| 2026-04-22 10:01 | 4.06714 | 8.06260 | 27256 ft | 351 kts | 290° |
| 2026-04-22 10:01 | 4.07387 | 8.03907 | 27775 ft | 353 kts | 290° |
| 2026-04-22 10:01 | 4.08065 | 8.01533 | 28322 ft | 355 kts | 290° |
| 2026-04-22 10:02 | 4.08746 | 7.99149 | 28831 ft | 357 kts | 290° |
| 2026-04-22 10:02 | 4.09432 | 7.96749 | 29323 ft | 360 kts | 291° |
| 2026-04-22 10:02 | 4.10123 | 7.94329 | 29822 ft | 362 kts | 291° |
| 2026-04-22 10:02 | 4.10817 | 7.91898 | 30256 ft | 365 kts | 291° |
| 2026-04-22 10:03 | 4.11508 | 7.89478 | 30637 ft | 368 kts | 290° |
| 2026-04-22 10:03 | 4.12173 | 7.86991 | 30998 ft | 373 kts | 286° |
| 2026-04-22 10:03 | 4.12475 | 7.84345 | 31457 ft | 379 kts | 279° |
| 2026-04-22 10:03 | 4.12697 | 7.81715 | 31974 ft | 381 kts | 279° |
| 2026-04-22 10:04 | 4.12950 | 7.79063 | 32432 ft | 384 kts | 280° |
| 2026-04-22 10:04 | 4.13232 | 7.76395 | 32898 ft | 387 kts | 280° |
| 2026-04-22 10:04 | 4.13503 | 7.73703 | 33374 ft | 390 kts | 279° |
| 2026-04-22 10:04 | 4.13763 | 7.70985 | 33821 ft | 393 kts | 279° |
| 2026-04-22 10:05 | 4.14028 | 7.68249 | 34229 ft | 397 kts | 279° |
| 2026-04-22 10:05 | 4.14303 | 7.65487 | 34608 ft | 400 kts | 278° |
| 2026-04-22 10:05 | 4.14576 | 7.62739 | 34992 ft | 403 kts | 278° |
| 2026-04-22 10:05 | 4.14851 | 7.59930 | 35370 ft | 407 kts | 277° |
| 2026-04-22 10:06 | 4.15127 | 7.57102 | 35735 ft | 410 kts | 277° |
| 2026-04-22 10:06 | 4.15408 | 7.54247 | 36108 ft | 414 kts | 277° |
| 2026-04-22 10:06 | 4.15692 | 7.51370 | 36427 ft | 416 kts | 276° |
| 2026-04-22 10:06 | 4.15976 | 7.48469 | 36703 ft | 420 kts | 276° |
| 2026-04-22 10:07 | 4.16262 | 7.45550 | 36994 ft | 423 kts | 276° |
| 2026-04-22 10:07 | 4.16457 | 7.43570 | 37189 ft | 425 kts | 276° |
| 2026-04-22 10:07 | 4.16841 | 7.39655 | 37583 ft | 428 kts | 275° |
| 2026-04-22 10:07 | 4.17038 | 7.37646 | 37793 ft | 430 kts | 275° |
| 2026-04-22 10:08 | 4.17331 | 7.34660 | 38098 ft | 432 kts | 275° |
| 2026-04-22 10:08 | 4.17721 | 7.30674 | 38476 ft | 436 kts | 275° |
| 2026-04-22 10:08 | 4.18018 | 7.27643 | 38722 ft | 439 kts | 275° |
| 2026-04-22 10:08 | 4.18220 | 7.25585 | 38894 ft | 440 kts | 275° |
| 2026-04-22 10:09 | 4.18519 | 7.22524 | 39163 ft | 442 kts | 275° |
| 2026-04-22 10:09 | 4.18820 | 7.19451 | 39422 ft | 445 kts | 274° |
| 2026-04-22 10:09 | 4.19122 | 7.16360 | 39688 ft | 447 kts | 274° |
| 2026-04-22 10:09 | 4.19425 | 7.13262 | 39953 ft | 449 kts | 274° |
| 2026-04-22 10:10 | 4.19730 | 7.10135 | 40218 ft | 451 kts | 274° |
| 2026-04-22 10:10 | 4.20036 | 7.07008 | 40476 ft | 453 kts | 274° |
| 2026-04-22 10:10 | 4.20342 | 7.03876 | 41044 ft | 443 kts | 274° |
| 2026-04-22 10:10 | 4.20639 | 7.00860 | 41765 ft | 432 kts | 273° |
| 2026-04-22 10:11 | 4.20929 | 6.97863 | 42004 ft | 433 kts | 273° |
| 2026-04-22 10:11 | 4.21220 | 6.94858 | 42300 ft | 433 kts | 273° |
| 2026-04-22 10:11 | 4.21514 | 6.91855 | 42619 ft | 432 kts | 273° |
| 2026-04-22 10:11 | 4.21807 | 6.88861 | 42916 ft | 432 kts | 273° |
| 2026-04-22 10:12 | 4.22098 | 6.85871 | 43229 ft | 431 kts | 273° |
| 2026-04-22 10:12 | 4.22387 | 6.82895 | 43501 ft | 430 kts | 273° |
| 2026-04-22 10:12 | 4.22677 | 6.79917 | 43776 ft | 430 kts | 272° |
| 2026-04-22 10:12 | 4.22967 | 6.76940 | 44022 ft | 429 kts | 272° |
| 2026-04-22 10:13 | 4.23256 | 6.73965 | 44283 ft | 429 kts | 272° |
| 2026-04-22 10:13 | 4.23544 | 6.70994 | 44529 ft | 428 kts | 272° |
| 2026-04-22 10:13 | 4.23833 | 6.68025 | 44720 ft | 428 kts | 272° |
| 2026-04-22 10:13 | 4.24120 | 6.65055 | 44889 ft | 428 kts | 272° |
| 2026-04-22 10:14 | 4.24406 | 6.62089 | 45071 ft | 428 kts | 272° |
| 2026-04-22 10:14 | 4.24692 | 6.59124 | 45232 ft | 428 kts | 272° |
| 2026-04-22 10:14 | 4.24979 | 6.56153 | 45386 ft | 428 kts | 272° |
| 2026-04-22 10:14 | 4.25265 | 6.53188 | 45541 ft | 428 kts | 272° |
| 2026-04-22 10:15 | 4.25551 | 6.50222 | 45699 ft | 428 kts | 272° |
| 2026-04-22 10:15 | 4.25836 | 6.47264 | 45839 ft | 428 kts | 272° |
| 2026-04-22 10:15 | 4.26122 | 6.44292 | 45963 ft | 428 kts | 272° |
| 2026-04-22 10:15 | 4.26407 | 6.41327 | 46108 ft | 428 kts | 272° |
| 2026-04-22 10:16 | 4.26687 | 6.38362 | 46244 ft | 427 kts | 272° |
| 2026-04-22 10:16 | 4.26966 | 6.35398 | 46368 ft | 427 kts | 272° |
| 2026-04-22 10:16 | 4.27246 | 6.32433 | 46482 ft | 427 kts | 272° |
| 2026-04-22 10:16 | 4.27528 | 6.29472 | 46599 ft | 427 kts | 272° |
| 2026-04-22 10:17 | 4.27808 | 6.26508 | 46708 ft | 427 kts | 272° |
| 2026-04-22 10:17 | 4.28088 | 6.23547 | 46823 ft | 427 kts | 272° |
| 2026-04-22 10:17 | 4.28649 | 6.17603 | 46894 ft | 431 kts | 272° |
| 2026-04-22 10:18 | 4.29218 | 6.11580 | 46905 ft | 437 kts | 272° |
| 2026-04-22 10:18 | 4.29794 | 6.05475 | 46890 ft | 443 kts | 273° |
| 2026-04-22 10:19 | 4.30382 | 5.99291 | 46896 ft | 449 kts | 273° |
| 2026-04-22 10:19 | 4.30976 | 5.93027 | 46902 ft | 454 kts | 273° |
| 2026-04-22 10:20 | 4.31572 | 5.86736 | 46904 ft | 459 kts | 273° |
| 2026-04-22 10:20 | 4.32179 | 5.80328 | 46892 ft | 465 kts | 273° |
| 2026-04-22 10:21 | 4.32792 | 5.73848 | 46892 ft | 469 kts | 273° |
| 2026-04-22 10:21 | 4.33411 | 5.67310 | 46909 ft | 474 kts | 273° |
| 2026-04-22 10:22 | 4.34027 | 5.60702 | 46896 ft | 478 kts | 272° |
| 2026-04-22 10:22 | 4.34639 | 5.54035 | 46910 ft | 482 kts | 272° |
| 2026-04-22 10:23 | 4.35261 | 5.47311 | 46899 ft | 487 kts | 272° |
| 2026-04-22 10:23 | 4.35885 | 5.40531 | 46907 ft | 490 kts | 272° |
| 2026-04-22 10:24 | 4.36519 | 5.33656 | 46900 ft | 494 kts | 272° |
| 2026-04-22 10:24 | 4.37151 | 5.26773 | 46907 ft | 497 kts | 272° |
| 2026-04-22 10:25 | 4.37787 | 5.19856 | 46901 ft | 500 kts | 272° |
| 2026-04-22 10:25 | 4.38424 | 5.12913 | 46902 ft | 501 kts | 273° |
| 2026-04-22 10:26 | 4.39063 | 5.05945 | 46902 ft | 503 kts | 273° |
| 2026-04-22 10:26 | 4.39703 | 4.98958 | 46905 ft | 504 kts | 273° |
| 2026-04-22 10:27 | 4.40344 | 4.91962 | 46904 ft | 504 kts | 273° |
| 2026-04-22 10:27 | 4.40984 | 4.84962 | 46889 ft | 504 kts | 273° |
| 2026-04-22 10:28 | 4.41623 | 4.77966 | 46883 ft | 504 kts | 273° |
| 2026-04-22 10:28 | 4.42260 | 4.70973 | 46892 ft | 504 kts | 273° |
| 2026-04-22 10:29 | 4.42898 | 4.63979 | 46890 ft | 504 kts | 273° |
| 2026-04-22 10:29 | 4.43534 | 4.56992 | 46890 ft | 504 kts | 273° |
| 2026-04-22 10:30 | 4.44909 | 4.50102 | 46890 ft | 506 kts | 283° |
| 2026-04-22 10:30 | 4.46788 | 4.43309 | 46887 ft | 506 kts | 282° |
| 2026-04-22 10:31 | 4.48485 | 4.36475 | 46887 ft | 506 kts | 283° |
| 2026-04-22 10:31 | 4.50305 | 4.29670 | 46889 ft | 505 kts | 283° |
| 2026-04-22 10:32 | 4.52045 | 4.22843 | 46895 ft | 505 kts | 283° |
| 2026-04-22 10:32 | 4.53833 | 4.16028 | 46895 ft | 505 kts | 283° |
| 2026-04-22 10:33 | 4.55591 | 4.09210 | 46890 ft | 505 kts | 283° |
| 2026-04-22 10:33 | 4.57364 | 4.02395 | 46896 ft | 505 kts | 283° |
| 2026-04-22 10:34 | 4.59127 | 3.95584 | 46905 ft | 505 kts | 283° |
| 2026-04-22 10:34 | 4.60892 | 3.88775 | 46896 ft | 505 kts | 283° |
| 2026-04-22 10:35 | 4.62654 | 3.81973 | 46897 ft | 504 kts | 283° |
| 2026-04-22 10:35 | 4.64414 | 3.75173 | 46893 ft | 504 kts | 283° |
| 2026-04-22 10:36 | 4.66175 | 3.68371 | 46890 ft | 504 kts | 283° |
| 2026-04-22 10:36 | 4.67932 | 3.61578 | 46892 ft | 503 kts | 283° |
| 2026-04-22 10:37 | 4.70563 | 3.51401 | 46889 ft | 502 kts | 283° |
| 2026-04-22 10:38 | 4.72315 | 3.44624 | 46893 ft | 502 kts | 283° |
| 2026-04-22 10:38 | 4.74063 | 3.37856 | 46892 ft | 501 kts | 283° |
| 2026-04-22 10:39 | 4.75808 | 3.31097 | 46892 ft | 501 kts | 283° |
| 2026-04-22 10:39 | 4.77551 | 3.24344 | 46891 ft | 500 kts | 283° |
| 2026-04-22 10:40 | 4.79292 | 3.17592 | 46885 ft | 500 kts | 283° |
| 2026-04-22 10:40 | 4.81033 | 3.10843 | 46885 ft | 500 kts | 283° |
| 2026-04-22 10:41 | 4.82773 | 3.04090 | 46881 ft | 500 kts | 283° |
| 2026-04-22 10:41 | 4.84511 | 2.97343 | 46906 ft | 499 kts | 283° |
| 2026-04-22 10:42 | 4.86248 | 2.90597 | 46901 ft | 500 kts | 283° |
| 2026-04-22 10:42 | 4.87986 | 2.83849 | 46899 ft | 500 kts | 283° |
| 2026-04-22 10:43 | 4.89722 | 2.77101 | 46884 ft | 500 kts | 283° |
| 2026-04-22 10:43 | 4.91460 | 2.70349 | 46889 ft | 500 kts | 283° |
| 2026-04-22 10:44 | 4.93196 | 2.63599 | 46888 ft | 500 kts | 283° |
| 2026-04-22 10:44 | 4.94931 | 2.56850 | 46896 ft | 500 kts | 283° |
| 2026-04-22 10:45 | 4.96666 | 2.50099 | 46900 ft | 500 kts | 283° |
| 2026-04-22 10:45 | 4.98400 | 2.43346 | 46897 ft | 500 kts | 283° |
| 2026-04-22 10:46 | 5.00134 | 2.36593 | 46904 ft | 500 kts | 283° |
| 2026-04-22 10:46 | 5.01868 | 2.29839 | 46915 ft | 500 kts | 283° |
| 2026-04-22 10:47 | 5.03601 | 2.23083 | 46893 ft | 500 kts | 283° |
| 2026-04-22 10:47 | 5.05335 | 2.16324 | 46891 ft | 500 kts | 283° |
| 2026-04-22 10:48 | 5.06779 | 2.10706 | 46889 ft | 501 kts | 284° |
| 2026-04-22 10:48 | 5.08517 | 2.03942 | 46891 ft | 501 kts | 284° |
| 2026-04-22 10:49 | 5.10253 | 1.97180 | 46899 ft | 500 kts | 283° |
| 2026-04-22 10:49 | 5.11987 | 1.90423 | 46896 ft | 500 kts | 284° |
| 2026-04-22 10:50 | 5.13719 | 1.83668 | 46896 ft | 500 kts | 283° |
| 2026-04-22 10:50 | 5.15450 | 1.76915 | 46902 ft | 500 kts | 283° |
| 2026-04-22 10:51 | 5.17180 | 1.70167 | 46905 ft | 499 kts | 283° |
| 2026-04-22 10:51 | 5.18907 | 1.63421 | 46903 ft | 499 kts | 283° |
| 2026-04-22 10:52 | 5.20631 | 1.56680 | 46905 ft | 499 kts | 283° |
| 2026-04-22 10:52 | 5.22292 | 1.49925 | 46898 ft | 498 kts | 283° |
| 2026-04-22 10:53 | 5.23974 | 1.43182 | 46908 ft | 498 kts | 283° |
| 2026-04-22 10:53 | 5.25645 | 1.36440 | 46903 ft | 498 kts | 283° |
| 2026-04-22 10:54 | 5.27315 | 1.29705 | 46906 ft | 497 kts | 283° |
| 2026-04-22 10:54 | 5.28986 | 1.22973 | 46897 ft | 497 kts | 283° |
| 2026-04-22 10:55 | 5.30652 | 1.16242 | 46894 ft | 497 kts | 283° |
| 2026-04-22 10:55 | 5.32320 | 1.09513 | 46892 ft | 497 kts | 283° |
| 2026-04-22 10:56 | 5.33983 | 1.02794 | 46900 ft | 496 kts | 283° |
| 2026-04-22 10:56 | 5.35645 | 0.96080 | 46901 ft | 496 kts | 283° |
| 2026-04-22 10:57 | 5.37305 | 0.89368 | 46900 ft | 495 kts | 283° |
| 2026-04-22 10:57 | 5.38963 | 0.82660 | 46898 ft | 495 kts | 283° |
| 2026-04-22 10:58 | 5.40632 | 0.75960 | 46910 ft | 494 kts | 284° |
| 2026-04-22 10:58 | 5.42308 | 0.69268 | 46905 ft | 494 kts | 283° |
| 2026-04-22 10:59 | 5.43975 | 0.62573 | 46900 ft | 494 kts | 284° |
| 2026-04-22 10:59 | 5.45646 | 0.55882 | 46896 ft | 494 kts | 284° |
| 2026-04-22 11:00 | 5.47313 | 0.49188 | 46900 ft | 494 kts | 284° |
| 2026-04-22 11:00 | 5.48980 | 0.42505 | 46901 ft | 494 kts | 284° |
| 2026-04-22 11:01 | 5.50644 | 0.35821 | 46908 ft | 493 kts | 284° |
| 2026-04-22 11:01 | 5.52307 | 0.29143 | 46907 ft | 493 kts | 284° |
| 2026-04-22 11:02 | 5.53967 | 0.22469 | 46910 ft | 493 kts | 284° |
| 2026-04-22 11:02 | 5.55627 | 0.15796 | 46909 ft | 493 kts | 284° |
| 2026-04-22 11:03 | 5.57285 | 0.09124 | 46910 ft | 492 kts | 284° |
| 2026-04-22 11:03 | 5.58941 | 0.02461 | 46919 ft | 492 kts | 284° |
| 2026-04-22 11:04 | 5.60594 | -0.04199 | 46918 ft | 491 kts | 284° |
| 2026-04-22 11:04 | 5.62246 | -0.10854 | 46916 ft | 491 kts | 284° |
| 2026-04-22 11:05 | 5.63280 | -0.17613 | 46899 ft | 492 kts | 271° |
| 2026-04-22 11:05 | 5.62637 | -0.24449 | 46923 ft | 492 kts | 262° |
| 2026-04-22 11:06 | 5.61857 | -0.31268 | 46914 ft | 492 kts | 267° |
| 2026-04-22 11:06 | 5.61322 | -0.38108 | 46911 ft | 492 kts | 264° |
| 2026-04-22 11:07 | 5.60590 | -0.44939 | 46910 ft | 492 kts | 265° |
| 2026-04-22 11:07 | 5.59999 | -0.51785 | 46901 ft | 492 kts | 265° |
| 2026-04-22 11:08 | 5.59310 | -0.58624 | 46895 ft | 493 kts | 265° |
| 2026-04-22 11:08 | 5.58683 | -0.65471 | 46895 ft | 493 kts | 265° |
| 2026-04-22 11:09 | 5.58016 | -0.72316 | 46901 ft | 493 kts | 265° |
| 2026-04-22 11:09 | 5.57371 | -0.79168 | 46905 ft | 493 kts | 265° |
| 2026-04-22 11:10 | 5.56713 | -0.86017 | 46901 ft | 493 kts | 265° |
| 2026-04-22 11:10 | 5.56059 | -0.92872 | 46908 ft | 493 kts | 265° |
| 2026-04-22 11:11 | 5.55402 | -0.99725 | 46905 ft | 494 kts | 265° |
| 2026-04-22 11:11 | 5.54745 | -1.06586 | 46910 ft | 494 kts | 265° |
| 2026-04-22 11:12 | 5.54086 | -1.13447 | 46915 ft | 494 kts | 265° |
| 2026-04-22 11:12 | 5.53433 | -1.20311 | 46913 ft | 494 kts | 265° |
| 2026-04-22 11:13 | 5.52790 | -1.27181 | 46913 ft | 494 kts | 265° |
| 2026-04-22 11:13 | 5.52137 | -1.34053 | 46919 ft | 494 kts | 265° |
| 2026-04-22 11:14 | 5.51489 | -1.40926 | 46914 ft | 495 kts | 265° |
| 2026-04-22 11:14 | 5.50837 | -1.47800 | 46909 ft | 495 kts | 265° |
| 2026-04-22 11:15 | 5.50186 | -1.54681 | 46903 ft | 495 kts | 265° |
| 2026-04-22 11:15 | 5.49531 | -1.61565 | 46896 ft | 496 kts | 265° |
| 2026-04-22 11:16 | 5.48878 | -1.68451 | 46899 ft | 496 kts | 265° |
| 2026-04-22 11:16 | 5.48236 | -1.75339 | 46897 ft | 496 kts | 265° |
| 2026-04-22 11:17 | 5.47627 | -1.82234 | 46901 ft | 496 kts | 265° |
| 2026-04-22 11:17 | 5.46992 | -1.89127 | 46902 ft | 496 kts | 265° |
| 2026-04-22 11:18 | 5.46374 | -1.96021 | 46900 ft | 496 kts | 265° |
| 2026-04-22 11:18 | 5.45743 | -2.02920 | 46910 ft | 496 kts | 265° |
| 2026-04-22 11:19 | 5.45118 | -2.09822 | 46909 ft | 497 kts | 265° |
| 2026-04-22 11:19 | 5.44488 | -2.16731 | 46904 ft | 497 kts | 265° |
| 2026-04-22 11:20 | 5.43858 | -2.23643 | 46904 ft | 498 kts | 265° |
| 2026-04-22 11:20 | 5.43227 | -2.30559 | 46901 ft | 498 kts | 265° |
| 2026-04-22 11:21 | 5.42595 | -2.37476 | 46905 ft | 498 kts | 265° |
| 2026-04-22 11:21 | 5.41962 | -2.44394 | 46912 ft | 498 kts | 265° |
| 2026-04-22 11:22 | 5.41328 | -2.51314 | 46915 ft | 498 kts | 265° |
| 2026-04-22 11:22 | 5.40693 | -2.58237 | 46914 ft | 498 kts | 265° |
| 2026-04-22 11:23 | 5.40057 | -2.65162 | 46911 ft | 498 kts | 265° |
| 2026-04-22 11:23 | 5.39420 | -2.72089 | 46899 ft | 499 kts | 265° |
| 2026-04-22 11:24 | 5.38786 | -2.78974 | 46905 ft | 499 kts | 264° |
| 2026-04-22 11:24 | 5.38145 | -2.85908 | 46905 ft | 499 kts | 264° |
| 2026-04-22 11:25 | 5.37505 | -2.92836 | 46908 ft | 499 kts | 264° |
| 2026-04-22 11:25 | 5.36863 | -2.99773 | 46910 ft | 499 kts | 264° |
| 2026-04-22 11:26 | 5.36221 | -3.06708 | 46910 ft | 499 kts | 264° |
| 2026-04-22 11:26 | 5.35573 | -3.13690 | 46908 ft | 499 kts | 264° |
| 2026-04-22 11:27 | 5.34933 | -3.20584 | 46902 ft | 500 kts | 264° |
| 2026-04-22 11:27 | 5.34287 | -3.27525 | 46911 ft | 500 kts | 264° |
| 2026-04-22 11:28 | 5.33636 | -3.34514 | 46902 ft | 500 kts | 264° |
| 2026-04-22 11:28 | 5.32988 | -3.41461 | 46906 ft | 500 kts | 264° |
| 2026-04-22 11:29 | 5.32450 | -3.47235 | 46904 ft | 500 kts | 264° |
| 2026-04-22 11:29 | 5.31800 | -3.54185 | 46910 ft | 500 kts | 264° |
| 2026-04-22 11:30 | 5.31151 | -3.61133 | 46908 ft | 500 kts | 264° |
| 2026-04-22 11:30 | 5.30499 | -3.68080 | 46911 ft | 500 kts | 264° |
| 2026-04-22 11:31 | 5.29849 | -3.75022 | 46914 ft | 500 kts | 264° |
| 2026-04-22 11:31 | 5.29197 | -3.81964 | 46929 ft | 500 kts | 263° |
| 2026-04-22 11:32 | 5.29031 | -3.88948 | 46900 ft | 503 kts | 276° |
| 2026-04-22 11:32 | 5.30855 | -3.95715 | 46903 ft | 505 kts | 294° |
| 2026-04-22 11:33 | 5.34602 | -4.01650 | 46909 ft | 505 kts | 310° |
| 2026-04-22 11:33 | 5.39313 | -4.06882 | 46909 ft | 506 kts | 313° |
| 2026-04-22 11:34 | 5.43619 | -4.12462 | 46896 ft | 507 kts | 304° |
| 2026-04-22 11:34 | 5.47561 | -4.18322 | 46899 ft | 507 kts | 307° |
| 2026-04-22 11:35 | 5.51860 | -4.23929 | 46896 ft | 507 kts | 306° |
| 2026-04-22 11:35 | 5.55933 | -4.29707 | 46897 ft | 507 kts | 306° |
| 2026-04-22 11:36 | 5.60145 | -4.35383 | 46897 ft | 507 kts | 307° |
| 2026-04-22 11:36 | 5.64276 | -4.41119 | 46901 ft | 507 kts | 306° |
| 2026-04-22 11:37 | 5.68447 | -4.46822 | 46901 ft | 507 kts | 306° |
| 2026-04-22 11:37 | 5.72598 | -4.52540 | 46899 ft | 507 kts | 306° |
| 2026-04-22 11:38 | 5.76756 | -4.58254 | 46904 ft | 507 kts | 306° |
| 2026-04-22 11:38 | 5.82980 | -4.66821 | 46919 ft | 506 kts | 306° |
| 2026-04-22 11:39 | 5.87131 | -4.72525 | 46915 ft | 506 kts | 306° |
| 2026-04-22 11:39 | 5.91275 | -4.78234 | 46916 ft | 506 kts | 306° |
| 2026-04-22 11:40 | 5.95420 | -4.83939 | 46913 ft | 505 kts | 306° |
| 2026-04-22 11:40 | 5.99560 | -4.89642 | 46908 ft | 505 kts | 306° |
| 2026-04-22 11:41 | 6.03697 | -4.95340 | 46921 ft | 505 kts | 306° |
| 2026-04-22 11:41 | 6.07830 | -5.01036 | 46929 ft | 504 kts | 306° |
| 2026-04-22 11:42 | 6.11959 | -5.06728 | 46925 ft | 504 kts | 306° |
| 2026-04-22 11:42 | 6.16086 | -5.12419 | 46929 ft | 504 kts | 306° |
| 2026-04-22 11:43 | 6.20209 | -5.18108 | 46932 ft | 503 kts | 306° |
| 2026-04-22 11:43 | 6.24328 | -5.23791 | 46927 ft | 503 kts | 306° |
| 2026-04-22 11:44 | 6.28442 | -5.29470 | 46938 ft | 502 kts | 306° |
| 2026-04-22 11:44 | 6.32551 | -5.35143 | 46939 ft | 502 kts | 306° |
| 2026-04-22 11:45 | 6.36658 | -5.40817 | 46942 ft | 502 kts | 306° |
| 2026-04-22 11:45 | 6.40763 | -5.46488 | 46936 ft | 501 kts | 306° |
| 2026-04-22 11:46 | 6.44861 | -5.52152 | 46932 ft | 501 kts | 306° |
| 2026-04-22 11:46 | 6.48961 | -5.57820 | 46934 ft | 501 kts | 306° |
| 2026-04-22 11:47 | 6.53059 | -5.63488 | 46937 ft | 501 kts | 306° |
| 2026-04-22 11:47 | 6.57165 | -5.69169 | 46933 ft | 502 kts | 305° |
| 2026-04-22 11:48 | 6.61275 | -5.74856 | 46943 ft | 503 kts | 305° |
| 2026-04-22 11:48 | 6.65391 | -5.80553 | 46938 ft | 504 kts | 305° |
| 2026-04-22 11:49 | 6.69514 | -5.86264 | 46948 ft | 505 kts | 305° |
| 2026-04-22 11:49 | 6.73650 | -5.91992 | 46950 ft | 507 kts | 305° |
| 2026-04-22 11:50 | 6.77719 | -5.97787 | 46945 ft | 508 kts | 304° |
| 2026-04-22 11:50 | 6.81799 | -6.03597 | 46939 ft | 509 kts | 304° |
| 2026-04-22 11:51 | 6.85840 | -6.09457 | 46945 ft | 510 kts | 304° |
| 2026-04-22 11:51 | 6.89917 | -6.15316 | 46943 ft | 512 kts | 304° |
| 2026-04-22 11:52 | 6.93991 | -6.21197 | 46949 ft | 513 kts | 304° |
| 2026-04-22 11:52 | 6.98077 | -6.27090 | 46943 ft | 514 kts | 304° |
| 2026-04-22 11:53 | 7.02169 | -6.32993 | 46937 ft | 515 kts | 304° |
| 2026-04-22 11:53 | 7.06269 | -6.38913 | 46934 ft | 516 kts | 304° |
| 2026-04-22 11:54 | 7.10372 | -6.44836 | 46935 ft | 516 kts | 304° |
| 2026-04-22 11:54 | 7.14476 | -6.50767 | 46934 ft | 516 kts | 304° |
| 2026-04-22 11:55 | 7.18583 | -6.56701 | 46939 ft | 516 kts | 304° |
| 2026-04-22 11:55 | 7.22688 | -6.62636 | 46943 ft | 516 kts | 304° |
| 2026-04-22 11:56 | 7.26794 | -6.68574 | 46931 ft | 517 kts | 304° |
| 2026-04-22 11:56 | 7.30898 | -6.74510 | 46935 ft | 516 kts | 304° |
| 2026-04-22 11:57 | 7.35003 | -6.80452 | 46924 ft | 517 kts | 304° |
| 2026-04-22 11:57 | 7.39108 | -6.86396 | 46918 ft | 517 kts | 304° |
| 2026-04-22 11:58 | 7.43216 | -6.92345 | 46920 ft | 517 kts | 304° |
| 2026-04-22 11:58 | 7.47324 | -6.98296 | 46913 ft | 517 kts | 304° |
| 2026-04-22 11:59 | 7.51432 | -7.04251 | 46931 ft | 517 kts | 304° |
| 2026-04-22 11:59 | 7.55539 | -7.10206 | 46933 ft | 518 kts | 304° |
| 2026-04-22 12:00 | 7.59622 | -7.16128 | 46933 ft | 518 kts | 304° |
| 2026-04-22 12:00 | 7.63734 | -7.22095 | 46924 ft | 519 kts | 303° |
| 2026-04-22 12:01 | 7.67851 | -7.28072 | 46928 ft | 519 kts | 303° |
| 2026-04-22 12:01 | 7.71967 | -7.34050 | 46927 ft | 519 kts | 303° |
| 2026-04-22 12:02 | 7.76082 | -7.40028 | 46935 ft | 519 kts | 303° |
| 2026-04-22 12:02 | 7.80198 | -7.46010 | 46933 ft | 519 kts | 303° |
| 2026-04-22 12:03 | 7.84311 | -7.51990 | 46927 ft | 519 kts | 303° |
| 2026-04-22 12:03 | 7.88425 | -7.57975 | 46932 ft | 519 kts | 303° |
| 2026-04-22 12:04 | 7.92540 | -7.63964 | 46928 ft | 520 kts | 303° |
| 2026-04-22 12:04 | 7.96659 | -7.69960 | 46919 ft | 520 kts | 303° |
| 2026-04-22 12:05 | 8.00779 | -7.75959 | 46923 ft | 520 kts | 303° |
| 2026-04-22 12:05 | 8.04898 | -7.81961 | 46933 ft | 520 kts | 303° |
| 2026-04-22 12:06 | 8.09018 | -7.87966 | 46929 ft | 520 kts | 303° |
| 2026-04-22 12:06 | 8.13138 | -7.93973 | 46931 ft | 520 kts | 303° |
| 2026-04-22 12:07 | 8.17253 | -7.99977 | 46926 ft | 520 kts | 303° |
| 2026-04-22 12:07 | 8.21373 | -8.05989 | 46930 ft | 520 kts | 303° |
| 2026-04-22 12:08 | 8.25488 | -8.11998 | 46930 ft | 521 kts | 303° |
| 2026-04-22 12:08 | 8.29607 | -8.18014 | 46934 ft | 521 kts | 303° |
| 2026-04-22 12:09 | 8.33724 | -8.24030 | 46938 ft | 521 kts | 303° |
| 2026-04-22 12:09 | 8.37842 | -8.30049 | 46934 ft | 521 kts | 303° |
| 2026-04-22 12:10 | 8.41970 | -8.36064 | 46939 ft | 521 kts | 303° |
| 2026-04-22 12:10 | 8.46094 | -8.42083 | 46939 ft | 521 kts | 303° |
| 2026-04-22 12:11 | 8.50219 | -8.48106 | 46939 ft | 521 kts | 303° |
| 2026-04-22 12:11 | 8.53649 | -8.53113 | 46934 ft | 521 kts | 303° |
| 2026-04-22 12:12 | 8.57772 | -8.59138 | 46925 ft | 521 kts | 303° |
| 2026-04-22 12:12 | 8.61891 | -8.65158 | 46937 ft | 521 kts | 303° |
| 2026-04-22 12:13 | 8.66006 | -8.71176 | 46938 ft | 520 kts | 303° |
| 2026-04-22 12:13 | 8.70121 | -8.77195 | 46940 ft | 520 kts | 302° |
| 2026-04-22 12:14 | 8.74231 | -8.83211 | 46939 ft | 520 kts | 302° |
| 2026-04-22 12:14 | 8.78344 | -8.89234 | 46920 ft | 521 kts | 302° |
| 2026-04-22 12:15 | 8.82456 | -8.95257 | 46940 ft | 520 kts | 302° |
| 2026-04-22 12:15 | 8.86566 | -9.01281 | 46936 ft | 520 kts | 302° |
| 2026-04-22 12:16 | 8.90675 | -9.07305 | 46941 ft | 520 kts | 302° |
| 2026-04-22 12:16 | 8.94782 | -9.13331 | 46944 ft | 520 kts | 302° |
| 2026-04-22 12:17 | 8.98889 | -9.19357 | 46927 ft | 520 kts | 302° |
| 2026-04-22 12:17 | 9.02939 | -9.25411 | 46915 ft | 519 kts | 298° |
| 2026-04-22 12:18 | 9.05638 | -9.32083 | 46923 ft | 510 kts | 280° |
| 2026-04-22 12:18 | 9.06553 | -9.39143 | 46951 ft | 504 kts | 270° |
| 2026-04-22 12:19 | 9.07115 | -9.46223 | 46932 ft | 507 kts | 274° |
| 2026-04-22 12:19 | 9.08206 | -9.53273 | 46944 ft | 506 kts | 274° |
| 2026-04-22 12:20 | 9.08959 | -9.60353 | 46932 ft | 507 kts | 273° |
| 2026-04-22 12:20 | 9.09917 | -9.67427 | 46926 ft | 507 kts | 274° |
| 2026-04-22 12:21 | 9.10756 | -9.74500 | 46921 ft | 507 kts | 273° |
| 2026-04-22 12:21 | 9.11654 | -9.81578 | 46923 ft | 507 kts | 274° |
| 2026-04-22 12:22 | 9.12526 | -9.88665 | 46922 ft | 508 kts | 274° |
| 2026-04-22 12:22 | 9.13406 | -9.95759 | 46923 ft | 508 kts | 274° |
| 2026-04-22 12:23 | 9.14285 | -10.02856 | 46920 ft | 508 kts | 274° |
| 2026-04-22 12:23 | 9.15153 | -10.09912 | 46927 ft | 509 kts | 274° |
| 2026-04-22 12:24 | 9.16037 | -10.17059 | 46925 ft | 509 kts | 274° |
| 2026-04-22 12:24 | 9.16902 | -10.24114 | 46940 ft | 508 kts | 274° |
| 2026-04-22 12:25 | 9.17776 | -10.31215 | 46927 ft | 508 kts | 274° |
| 2026-04-22 12:25 | 9.18646 | -10.38316 | 46933 ft | 508 kts | 274° |
| 2026-04-22 12:26 | 9.19515 | -10.45414 | 46932 ft | 508 kts | 274° |
| 2026-04-22 12:26 | 9.20381 | -10.52505 | 46936 ft | 508 kts | 274° |
| 2026-04-22 12:27 | 9.21247 | -10.59594 | 46933 ft | 508 kts | 274° |
| 2026-04-22 12:27 | 9.22116 | -10.66732 | 46936 ft | 507 kts | 274° |
| 2026-04-22 12:28 | 9.22978 | -10.73818 | 46936 ft | 507 kts | 274° |
| 2026-04-22 12:28 | 9.23837 | -10.80894 | 46945 ft | 507 kts | 274° |
| 2026-04-22 12:29 | 9.24695 | -10.87970 | 46945 ft | 506 kts | 274° |
| 2026-04-22 12:29 | 9.25551 | -10.95041 | 46947 ft | 506 kts | 274° |
| 2026-04-22 12:30 | 9.26830 | -11.05640 | 46946 ft | 506 kts | 274° |
| 2026-04-22 12:31 | 9.27683 | -11.12706 | 46941 ft | 506 kts | 274° |
| 2026-04-22 12:31 | 9.28531 | -11.19769 | 46929 ft | 506 kts | 274° |
| 2026-04-22 12:32 | 9.29380 | -11.26833 | 46929 ft | 505 kts | 274° |
| 2026-04-22 12:32 | 9.30649 | -11.37420 | 46941 ft | 505 kts | 274° |
| 2026-04-22 12:33 | 9.31492 | -11.44475 | 46924 ft | 505 kts | 274° |
| 2026-04-22 12:33 | 9.32335 | -11.51528 | 46929 ft | 505 kts | 274° |
| 2026-04-22 12:34 | 9.33176 | -11.58585 | 46928 ft | 505 kts | 274° |
| 2026-04-22 12:34 | 9.34015 | -11.65640 | 46926 ft | 505 kts | 274° |
| 2026-04-22 12:35 | 9.34854 | -11.72701 | 46921 ft | 505 kts | 274° |
| 2026-04-22 12:35 | 9.35691 | -11.79761 | 46927 ft | 505 kts | 274° |
| 2026-04-22 12:36 | 9.36527 | -11.86818 | 46932 ft | 505 kts | 274° |
| 2026-04-22 12:36 | 9.37361 | -11.93882 | 46929 ft | 505 kts | 274° |
| 2026-04-22 12:37 | 9.38194 | -12.00944 | 46923 ft | 505 kts | 274° |
| 2026-04-22 12:37 | 9.39026 | -12.08011 | 46914 ft | 506 kts | 274° |
| 2026-04-22 12:38 | 9.39858 | -12.15081 | 46902 ft | 506 kts | 274° |
| 2026-04-22 12:38 | 9.40682 | -12.22108 | 46909 ft | 506 kts | 274° |
| 2026-04-22 12:39 | 9.41924 | -12.32715 | 46902 ft | 506 kts | 274° |
| 2026-04-22 12:40 | 9.42756 | -12.39834 | 46897 ft | 506 kts | 274° |
| 2026-04-22 12:40 | 9.43575 | -12.46856 | 46904 ft | 506 kts | 274° |
| 2026-04-22 12:41 | 9.44399 | -12.53927 | 46903 ft | 506 kts | 274° |
| 2026-04-22 12:41 | 9.45220 | -12.60998 | 46903 ft | 506 kts | 274° |
| 2026-04-22 12:42 | 9.46041 | -12.68069 | 46903 ft | 505 kts | 274° |
| 2026-04-22 12:42 | 9.46860 | -12.75138 | 46905 ft | 505 kts | 274° |
| 2026-04-22 12:43 | 9.47682 | -12.82250 | 46903 ft | 505 kts | 274° |
| 2026-04-22 12:43 | 9.48498 | -12.89319 | 46893 ft | 505 kts | 274° |
| 2026-04-22 12:44 | 9.49312 | -12.96386 | 46902 ft | 505 kts | 274° |
| 2026-04-22 12:44 | 9.50123 | -13.03444 | 46902 ft | 504 kts | 274° |
| 2026-04-22 12:45 | 9.50934 | -13.10502 | 46905 ft | 504 kts | 274° |
| 2026-04-22 12:45 | 9.51736 | -13.17509 | 46907 ft | 504 kts | 274° |
| 2026-04-22 12:46 | 9.52543 | -13.24560 | 46897 ft | 504 kts | 274° |
| 2026-04-22 12:46 | 9.53348 | -13.31612 | 46899 ft | 504 kts | 274° |
| 2026-04-22 12:47 | 9.54151 | -13.38660 | 46909 ft | 504 kts | 274° |
| 2026-04-22 12:47 | 9.54953 | -13.45709 | 46914 ft | 503 kts | 274° |
| 2026-04-22 12:48 | 9.55754 | -13.52751 | 46922 ft | 503 kts | 274° |
| 2026-04-22 12:48 | 9.57557 | -13.59620 | 46887 ft | 510 kts | 291° |
| 2026-04-22 12:49 | 9.61327 | -13.65712 | 46910 ft | 515 kts | 309° |
| 2026-04-22 12:49 | 9.66722 | -13.70488 | 46918 ft | 518 kts | 324° |
| 2026-04-22 12:50 | 9.72818 | -13.74380 | 46920 ft | 518 kts | 327° |
| 2026-04-22 12:50 | 9.78581 | -13.78728 | 46907 ft | 516 kts | 319° |
| 2026-04-22 12:51 | 9.84145 | -13.83326 | 46908 ft | 517 kts | 322° |
| 2026-04-22 12:51 | 9.89944 | -13.87633 | 46916 ft | 516 kts | 321° |
| 2026-04-22 12:52 | 9.95569 | -13.92151 | 46927 ft | 516 kts | 321° |
| 2026-04-22 12:52 | 10.01310 | -13.96527 | 46925 ft | 516 kts | 321° |
| 2026-04-22 12:53 | 10.06973 | -14.00995 | 46928 ft | 516 kts | 321° |
| 2026-04-22 12:53 | 10.11705 | -14.04753 | 46919 ft | 515 kts | 319° |
| 2026-04-22 12:54 | 10.17243 | -14.09352 | 46919 ft | 514 kts | 319° |
| 2026-04-22 12:54 | 10.22779 | -14.13960 | 46922 ft | 515 kts | 319° |
| 2026-04-22 12:55 | 10.28281 | -14.18539 | 46905 ft | 515 kts | 319° |
| 2026-04-22 12:55 | 10.33819 | -14.23149 | 46912 ft | 515 kts | 319° |
| 2026-04-22 12:56 | 10.39391 | -14.27792 | 46921 ft | 514 kts | 319° |
| 2026-04-22 12:56 | 10.44885 | -14.32370 | 46919 ft | 514 kts | 319° |
| 2026-04-22 12:57 | 10.50411 | -14.36980 | 46916 ft | 514 kts | 319° |
| 2026-04-22 12:57 | 10.55933 | -14.41585 | 46924 ft | 513 kts | 319° |
| 2026-04-22 12:58 | 10.61451 | -14.46191 | 46917 ft | 513 kts | 319° |
| 2026-04-22 12:58 | 10.66966 | -14.50797 | 46923 ft | 513 kts | 319° |
| 2026-04-22 12:59 | 10.72577 | -14.55347 | 46914 ft | 512 kts | 321° |
| 2026-04-22 12:59 | 10.78215 | -14.59776 | 46914 ft | 512 kts | 320° |
| 2026-04-22 13:00 | 10.83847 | -14.64197 | 46916 ft | 511 kts | 321° |
| 2026-04-22 13:00 | 10.89416 | -14.68568 | 46903 ft | 511 kts | 321° |
| 2026-04-22 13:01 | 10.95041 | -14.72989 | 46897 ft | 511 kts | 321° |
| 2026-04-22 13:01 | 11.00671 | -14.77412 | 46892 ft | 511 kts | 321° |
| 2026-04-22 13:02 | 11.06288 | -14.81831 | 46911 ft | 510 kts | 321° |
| 2026-04-22 13:02 | 11.11903 | -14.86247 | 46917 ft | 510 kts | 321° |
| 2026-04-22 13:03 | 11.17513 | -14.90665 | 46910 ft | 509 kts | 321° |
| 2026-04-22 13:03 | 11.20253 | -14.92840 | 46886 ft | 494 kts | 320° |
| 2026-04-22 13:03 | 11.22948 | -14.95005 | 46892 ft | 494 kts | 320° |
| 2026-04-22 13:04 | 11.28384 | -14.99339 | 46893 ft | 498 kts | 321° |
| 2026-04-22 13:04 | 11.33883 | -15.03721 | 46315 ft | 512 kts | 320° |
| 2026-04-22 13:04 | 11.36691 | -15.05968 | 45638 ft | 514 kts | 320° |
| 2026-04-22 13:05 | 11.39512 | -15.08218 | 44958 ft | 515 kts | 321° |
| 2026-04-22 13:05 | 11.42332 | -15.10464 | 44218 ft | 515 kts | 320° |
| 2026-04-22 13:05 | 11.45111 | -15.12683 | 43555 ft | 517 kts | 320° |
| 2026-04-22 13:05 | 11.47954 | -15.14959 | 42877 ft | 521 kts | 320° |
| 2026-04-22 13:06 | 11.50814 | -15.17244 | 42184 ft | 524 kts | 320° |
| 2026-04-22 13:06 | 11.53699 | -15.19547 | 41486 ft | 528 kts | 320° |
| 2026-04-22 13:06 | 11.56597 | -15.21862 | 40782 ft | 532 kts | 320° |
| 2026-04-22 13:06 | 11.59517 | -15.24199 | 40089 ft | 535 kts | 319° |
| 2026-04-22 13:07 | 11.62457 | -15.26552 | 39387 ft | 539 kts | 319° |
| 2026-04-22 13:07 | 11.65417 | -15.28918 | 38677 ft | 543 kts | 319° |
| 2026-04-22 13:07 | 11.68399 | -15.31304 | 37911 ft | 543 kts | 319° |
| 2026-04-22 13:07 | 11.71363 | -15.33677 | 37199 ft | 541 kts | 319° |
| 2026-04-22 13:08 | 11.74316 | -15.36043 | 36487 ft | 539 kts | 320° |
| 2026-04-22 13:08 | 11.77301 | -15.38433 | 35772 ft | 537 kts | 320° |
| 2026-04-22 13:08 | 11.80191 | -15.40748 | 35078 ft | 535 kts | 320° |
| 2026-04-22 13:08 | 11.83119 | -15.43095 | 34376 ft | 534 kts | 320° |
| 2026-04-22 13:09 | 11.86033 | -15.45431 | 33638 ft | 532 kts | 321° |
| 2026-04-22 13:09 | 11.88932 | -15.47754 | 32937 ft | 529 kts | 321° |
| 2026-04-22 13:09 | 11.91823 | -15.50072 | 32239 ft | 527 kts | 321° |
| 2026-04-22 13:09 | 11.94699 | -15.52381 | 31549 ft | 525 kts | 321° |
| 2026-04-22 13:10 | 11.97560 | -15.54678 | 30853 ft | 522 kts | 322° |
| 2026-04-22 13:10 | 12.00410 | -15.56964 | 30167 ft | 520 kts | 322° |
| 2026-04-22 13:10 | 12.03219 | -15.59221 | 29436 ft | 503 kts | 322° |
| 2026-04-22 13:10 | 12.05973 | -15.61432 | 28776 ft | 502 kts | 322° |
| 2026-04-22 13:11 | 12.08709 | -15.63629 | 28107 ft | 499 kts | 322° |
| 2026-04-22 13:11 | 12.11424 | -15.65812 | 27448 ft | 495 kts | 322° |
| 2026-04-22 13:11 | 12.14123 | -15.67982 | 26804 ft | 492 kts | 322° |
| 2026-04-22 13:11 | 12.16800 | -15.70135 | 26141 ft | 488 kts | 322° |
| 2026-04-22 13:12 | 12.19459 | -15.72273 | 25505 ft | 485 kts | 322° |
| 2026-04-22 13:12 | 12.22101 | -15.74396 | 24871 ft | 482 kts | 321° |
| 2026-04-22 13:12 | 12.24724 | -15.76508 | 24243 ft | 479 kts | 321° |
| 2026-04-22 13:12 | 12.27331 | -15.78607 | 23612 ft | 476 kts | 321° |
| 2026-04-22 13:13 | 12.29920 | -15.80691 | 22937 ft | 471 kts | 321° |
| 2026-04-22 13:13 | 12.32489 | -15.82758 | 22320 ft | 468 kts | 321° |
| 2026-04-22 13:13 | 12.35035 | -15.84810 | 21706 ft | 464 kts | 321° |
| 2026-04-22 13:13 | 12.37558 | -15.86844 | 21096 ft | 460 kts | 321° |
| 2026-04-22 13:14 | 12.40062 | -15.88861 | 20493 ft | 456 kts | 321° |
| 2026-04-22 13:14 | 12.42546 | -15.90863 | 19885 ft | 453 kts | 321° |
| 2026-04-22 13:14 | 12.44911 | -15.92959 | 19296 ft | 449 kts | 316° |
| 2026-04-22 13:14 | 12.47210 | -15.95114 | 18713 ft | 446 kts | 316° |
| 2026-04-22 13:15 | 12.49507 | -15.97228 | 18115 ft | 442 kts | 317° |
| 2026-04-22 13:15 | 12.51793 | -15.99330 | 17507 ft | 441 kts | 317° |
| 2026-04-22 13:15 | 12.54057 | -16.01435 | 16929 ft | 439 kts | 316° |
| 2026-04-22 13:15 | 12.56308 | -16.03535 | 16358 ft | 437 kts | 316° |
| 2026-04-22 13:16 | 12.58556 | -16.05622 | 15777 ft | 435 kts | 317° |
| 2026-04-22 13:16 | 12.60796 | -16.07693 | 15206 ft | 434 kts | 317° |
| 2026-04-22 13:16 | 12.63029 | -16.09764 | 14640 ft | 432 kts | 317° |
| 2026-04-22 13:16 | 12.65251 | -16.11833 | 14070 ft | 432 kts | 317° |
| 2026-04-22 13:17 | 12.67468 | -16.13895 | 13480 ft | 429 kts | 317° |
| 2026-04-22 13:17 | 12.69630 | -16.15900 | 12916 ft | 404 kts | 317° |
| 2026-04-22 13:17 | 12.71631 | -16.17757 | 12401 ft | 374 kts | 317° |
| 2026-04-22 13:17 | 12.73490 | -16.19488 | 11922 ft | 349 kts | 317° |
| 2026-04-22 13:18 | 12.75235 | -16.21113 | 11477 ft | 330 kts | 317° |
| 2026-04-22 13:18 | 12.76894 | -16.22655 | 11052 ft | 314 kts | 318° |
| 2026-04-22 13:18 | 12.78479 | -16.24128 | 10656 ft | 303 kts | 318° |
| 2026-04-22 13:18 | 12.80022 | -16.25562 | 10277 ft | 297 kts | 318° |
| 2026-04-22 13:19 | 12.81545 | -16.26981 | 9885 ft | 295 kts | 318° |
| 2026-04-22 13:19 | 12.83061 | -16.28391 | 9483 ft | 293 kts | 318° |
| 2026-04-22 13:19 | 12.84560 | -16.29786 | 9104 ft | 290 kts | 318° |
| 2026-04-22 13:19 | 12.86050 | -16.31174 | 8712 ft | 289 kts | 318° |
| 2026-04-22 13:20 | 12.87537 | -16.32559 | 8336 ft | 288 kts | 318° |
| 2026-04-22 13:20 | 12.89012 | -16.33933 | 7964 ft | 286 kts | 318° |
| 2026-04-22 13:20 | 12.90477 | -16.35296 | 7594 ft | 284 kts | 318° |
| 2026-04-22 13:20 | 12.91933 | -16.36652 | 7221 ft | 282 kts | 318° |
| 2026-04-22 13:21 | 12.93385 | -16.38005 | 6849 ft | 281 kts | 318° |
| 2026-04-22 13:21 | 12.94823 | -16.39345 | 6473 ft | 278 kts | 318° |
| 2026-04-22 13:21 | 12.96252 | -16.40677 | 6107 ft | 278 kts | 318° |
| 2026-04-22 13:21 | 12.97678 | -16.42007 | 5731 ft | 275 kts | 318° |
| 2026-04-22 13:22 | 12.99064 | -16.43299 | 5378 ft | 264 kts | 318° |
| 2026-04-22 13:22 | 13.00401 | -16.44545 | 5036 ft | 255 kts | 318° |
| 2026-04-22 13:22 | 13.01690 | -16.45749 | 4710 ft | 247 kts | 318° |
| 2026-04-22 13:22 | 13.02936 | -16.46911 | 4389 ft | 235 kts | 319° |
| 2026-04-22 13:23 | 13.04111 | -16.48007 | 4092 ft | 224 kts | 319° |
| 2026-04-22 13:23 | 13.05249 | -16.49068 | 3799 ft | 218 kts | 319° |
| 2026-04-22 13:23 | 13.06362 | -16.50106 | 3517 ft | 215 kts | 319° |
| 2026-04-22 13:23 | 13.07466 | -16.51136 | 3264 ft | 213 kts | 319° |
| 2026-04-22 13:24 | 13.08557 | -16.52154 | 3023 ft | 210 kts | 319° |
| 2026-04-22 13:24 | 13.09632 | -16.53159 | 2756 ft | 208 kts | 319° |
| 2026-04-22 13:24 | 13.10698 | -16.54154 | 2482 ft | 206 kts | 319° |
| 2026-04-22 13:24 | 13.11769 | -16.55136 | 2197 ft | 205 kts | 321° |
| 2026-04-22 13:25 | 13.13026 | -16.55673 | 1855 ft | 192 kts | 354° |
| 2026-04-22 13:25 | 13.14252 | -16.55490 | 1911 ft | 173 kts | 19° |
| 2026-04-22 13:25 | 13.15237 | -16.54803 | 1998 ft | 175 kts | 39° |
| 2026-04-22 13:25 | 13.16151 | -16.53996 | 2022 ft | 173 kts | 38° |
| 2026-04-22 13:26 | 13.17075 | -16.53197 | 2026 ft | 173 kts | 38° |
| 2026-04-22 13:26 | 13.17993 | -16.52395 | 2013 ft | 170 kts | 39° |
| 2026-04-22 13:26 | 13.18834 | -16.51656 | 1993 ft | 149 kts | 39° |
| 2026-04-22 13:26 | 13.19666 | -16.51092 | 1942 ft | 140 kts | 21° |
| 2026-04-22 13:27 | 13.20581 | -16.50915 | 1978 ft | 131 kts | 1° |
| 2026-04-22 13:27 | 13.21460 | -16.51071 | 1989 ft | 128 kts | 341° |
| 2026-04-22 13:27 | 13.22240 | -16.51534 | 2001 ft | 139 kts | 322° |
| 2026-04-22 13:27 | 13.22898 | -16.52297 | 2006 ft | 142 kts | 306° |
| 2026-04-22 13:28 | 13.23291 | -16.53216 | 1997 ft | 141 kts | 287° |
| 2026-04-22 13:28 | 13.23386 | -16.54229 | 1998 ft | 147 kts | 270° |
| 2026-04-22 13:28 | 13.23244 | -16.55288 | 1983 ft | 151 kts | 273° |
| 2026-04-22 13:28 | 13.23751 | -16.56143 | 1920 ft | 138 kts | 328° |
| 2026-04-22 13:29 | 13.24567 | -16.56547 | 2003 ft | 127 kts | 338° |
| 2026-04-22 13:29 | 13.25392 | -16.56949 | 2021 ft | 138 kts | 336° |
| 2026-04-22 13:29 | 13.26279 | -16.57388 | 1902 ft | 141 kts | 335° |
| 2026-04-22 13:29 | 13.27114 | -16.57788 | 1871 ft | 126 kts | 336° |
| 2026-04-22 13:30 | 13.27905 | -16.58253 | 1501 ft | 141 kts | 322° |
| 2026-04-22 13:30 | 13.28556 | -16.59016 | 1282 ft | 137 kts | 313° |
| 2026-04-22 13:30 | 13.29188 | -16.59750 | 1108 ft | 137 kts | 314° |
| 2026-04-22 13:30 | 13.29809 | -16.60478 | 936 ft | 138 kts | 313° |
| 2026-04-22 13:31 | 13.30432 | -16.61224 | 771 ft | 138 kts | 311° |
| 2026-04-22 13:31 | 13.31051 | -16.61964 | 598 ft | 135 kts | 311° |
| 2026-04-22 13:31 | 13.31654 | -16.62690 | 415 ft | 133 kts | 310° |
| 2026-04-22 13:31 | 13.32243 | -16.63389 | 221 ft | 125 kts | 310° |
| 2026-04-22 13:32 | 13.32789 | -16.64036 | 115 ft | 117 kts | 310° |
| 2026-04-22 13:32 | 13.33278 | -16.64623 | 89 ft | 97 kts | 310° |
| 2026-04-22 13:32 | 13.33647 | -16.65059 | 85 ft | 62 kts | 310° |
| 2026-04-22 13:32 | 13.33879 | -16.65337 | 87 ft | 45 kts | 311° |
| 2026-04-22 13:33 | 13.34042 | -16.65531 | 88 ft | 33 kts | 310° |
| 2026-04-22 13:33 | 13.34139 | -16.65566 | 90 ft | 16 kts | 38° |
| 2026-04-22 13:33 | 13.34167 | -16.65542 | 87 ft | 0 kts | 40° |
| 2026-04-22 13:34 | 13.34170 | -16.65540 | 87 ft | 2 kts | 40° |
| 2026-04-22 13:34 | 13.34192 | -16.65521 | 87 ft | 6 kts | 40° |
| 2026-04-22 13:34 | 13.34219 | -16.65489 | 87 ft | 8 kts | 73° |
| 2026-04-22 13:35 | 13.34184 | -16.65426 | 87 ft | 12 kts | 131° |
| 2026-04-22 13:35 | 13.34129 | -16.65361 | 88 ft | 12 kts | 131° |
| 2026-04-22 13:35 | 13.34089 | -16.65293 | 88 ft | 10 kts | 81° |
| 2026-04-22 13:35 | 13.34132 | -16.65247 | 90 ft | 9 kts | 39° |
| 2026-04-22 13:36 | 13.34165 | -16.65218 | 88 ft | 9 kts | 40° |
| 2026-04-22 13:36 | 13.34163 | -16.65180 | 90 ft | 7 kts | 131° |
| 2026-04-22 13:36 | 13.34128 | -16.65139 | 87 ft | 8 kts | 131° |
| 2026-04-22 13:36 | 13.34119 | -16.65128 | 87 ft | 0 kts | 130° |